Stolt Shearwater — ZCRD9 — position and weather

sailwx.info

Track history (hours):
 
Tides and Currents Weather Stations Pressure Air Temp Water Temp Dewpoint Dewpoint Depression Visibility Wind Speed Wind Dir Waves Ship Positions

Stolt Shearwater

Last reported at 2015-Aug-31 00:33 UTC. Time now 2015-Aug-31 08:54 UTC.
Position N 53°19' W 002°57'.

Length 96 m; draft 5.5 m.

Type: Ship. MMSI: 319402000.

Date/timePositionNaut miles runAvg speedWind from/ knotsBaromVisibWave heightAir tempDewpointWater temp
2015-Aug-31 00:33N 53°19' W 002°57'2 2.1
2015-Aug-30 23:33N 53°21' W 002°58'10 9.6
2015-Aug-30 22:33N 53°30' W 003°06'8 8.3
2015-Aug-30 21:33N 53°31' W 003°20'3 3.4
2015-Aug-30 20:32N 53°29' W 003°24'0 0.0
2015-Aug-30 19:32N 53°29' W 003°24'0 0.0
2015-Aug-30 18:32N 53°29' W 003°24'0 0.1
2015-Aug-30 17:32N 53°28' W 003°24'0 0.1
2015-Aug-30 16:32N 53°29' W 003°24'0 0.0
2015-Aug-30 15:29N 53°29' W 003°24'0 0.0
2015-Aug-30 14:31N 53°29' W 003°24'0 0.0
2015-Aug-30 13:32N 53°29' W 003°24'0 0.0
2015-Aug-30 12:29N 53°29' W 003°24'0 0.1
2015-Aug-30 11:31N 53°28' W 003°24'0 0.1
2015-Aug-30 10:29N 53°28' W 003°24'0 0.0
2015-Aug-30 09:32N 53°28' W 003°24'0 0.0
2015-Aug-30 08:32N 53°28' W 003°24'0 0.0
2015-Aug-30 07:32N 53°28' W 003°24'0 0.0
2015-Aug-30 06:32N 53°29' W 003°24'0 0.0
2015-Aug-30 05:32N 53°29' W 003°24'0 0.1
2015-Aug-30 04:32N 53°29' W 003°24'0 0.0
2015-Aug-30 03:32N 53°29' W 003°24'0 0.0
2015-Aug-30 02:32N 53°29' W 003°24'0 0.0
2015-Aug-30 01:32N 53°29' W 003°24'0 0.0
2015-Aug-30 00:32N 53°29' W 003°24'0 0.0
2015-Aug-29 23:32N 53°29' W 003°24'0 0.1
2015-Aug-29 22:32N 53°29' W 003°24'0 0.0
2015-Aug-29 21:32N 53°29' W 003°24'0 0.0
2015-Aug-29 20:32N 53°29' W 003°24'0 0.0
2015-Aug-29 19:29N 53°29' W 003°24'0 0.0
2015-Aug-29 18:26N 53°29' W 003°24'0 0.1
2015-Aug-29 17:33N 53°29' W 003°24'0 0.0
2015-Aug-29 16:33N 53°29' W 003°24'0 0.1
2015-Aug-29 15:34N 53°29' W 003°24'5 5.4
2015-Aug-29 14:33N 53°31' W 003°33'9 8.5
2015-Aug-29 13:33N 53°32' W 003°47'3 3.2
2015-Aug-29 12:33N 53°34' W 003°51'9 9.4
2015-Aug-29 11:34N 53°34' W 003°35'1111.3
2015-Aug-29 10:33N 53°32' W 003°17'9 9.1
2015-Aug-29 09:33N 53°28' W 003°03'7 7.1
2015-Aug-29 08:33N 53°21' W 002°58'4 3.8
2015-Aug-29 07:33N 53°18' W 002°55'3 2.5
2015-Aug-29 06:32N 53°17' W 002°51'0 0.0
2015-Aug-29 05:32N 53°17' W 002°51'0 0.0
2015-Aug-29 04:32N 53°17' W 002°51'0 0.0
2015-Aug-29 03:32N 53°17' W 002°51'0 0.0
2015-Aug-29 02:29N 53°17' W 002°51'0 0.0
2015-Aug-29 01:32N 53°17' W 002°51'0 0.0
2015-Aug-29 00:32N 53°17' W 002°51'0 0.0
2015-Aug-28 23:32N 53°17' W 002°51'0 0.0
2015-Aug-28 22:32N 53°17' W 002°51'0 0.0
2015-Aug-28 21:32N 53°17' W 002°51'0 0.0
2015-Aug-28 20:29N 53°17' W 002°51'0 0.0
2015-Aug-28 19:32N 53°17' W 002°51'0 0.0
2015-Aug-28 18:32N 53°17' W 002°51'0 0.0
2015-Aug-28 17:32N 53°17' W 002°51'0 0.0
2015-Aug-28 16:32N 53°17' W 002°51'0 0.0
2015-Aug-28 15:32N 53°17' W 002°51'0 0.0
2015-Aug-28 14:32N 53°17' W 002°51'0 0.0
2015-Aug-28 13:29N 53°17' W 002°51'0 0.0
2015-Aug-28 12:29N 53°17' W 002°51'0 0.0
2015-Aug-28 11:32N 53°17' W 002°51'2 2.0
2015-Aug-28 10:33N 53°18' W 002°54'4 3.6
2015-Aug-28 09:33N 53°20' W 002°58'10 9.8
2015-Aug-28 08:33N 53°29' W 003°05'9 9.0
2015-Aug-28 07:33N 53°31' W 003°20'3 3.2
2015-Aug-28 06:33N 53°28' W 003°24'0 0.0
2015-Aug-28 05:33N 53°28' W 003°24'0 0.0
2015-Aug-28 04:33N 53°28' W 003°24'0 0.0
2015-Aug-28 03:33N 53°28' W 003°24'0 0.1
2015-Aug-28 02:32N 53°28' W 003°24'0 0.1
2015-Aug-28 01:30N 53°28' W 003°24'0 0.0
2015-Aug-28 00:32N 53°28' W 003°24'0 0.1
2015-Aug-27 23:33N 53°28' W 003°24'0 0.1
2015-Aug-27 22:30N 53°28' W 003°24'0 0.1
2015-Aug-27 21:30N 53°28' W 003°24'0 0.0
2015-Aug-27 20:32N 53°28' W 003°24'0 0.0
2015-Aug-27 19:27N 53°28' W 003°24'4 4.1
2015-Aug-27 18:33N 53°30' W 003°29'1312.6
2015-Aug-27 17:33N 53°31' W 003°50'207 5.9
2015-Aug-26 06:33N 50°05' W 003°17'8 8.0
2015-Aug-26 05:31N 50°07' W 003°05'7 7.7
2015-Aug-26 04:33N 50°08' W 002°53'115 9.5
2015-Aug-25 16:26N 50°33' E 000°02'9 7.6
2015-Aug-25 15:15N 50°35' E 000°16'6 7.8
2015-Aug-25 14:33N 50°36' E 000°25'9 9.1
2015-Aug-25 13:34N 50°39' E 000°38'1010.2
2015-Aug-25 12:33N 50°46' E 000°51'1110.5
2015-Aug-25 11:30N 50°52' E 001°05'1010.2
2015-Aug-25 10:34N 50°58' E 001°16'9 9.4
2015-Aug-25 09:34N 51°04' E 001°28'9 8.9
2015-Aug-25 08:34N 51°10' E 001°39'9 8.9
2015-Aug-25 07:33N 51°17' E 001°48'10 9.6
2015-Aug-25 06:34N 51°25' E 001°55'1010.3
2015-Aug-25 05:33N 51°34' E 002°04'1110.9
2015-Aug-25 04:33N 51°44' E 002°12'2211.2
2015-Aug-25 02:34N 52°06' E 002°12'1211.8
2015-Aug-25 01:32N 52°18' E 002°08'1111.4
2015-Aug-25 00:33N 52°29' E 002°05'1110.9
2015-Aug-24 23:33N 52°40' E 002°01'10 9.7
2015-Aug-24 22:34N 52°48' E 001°53'10 9.9
2015-Aug-24 21:33N 52°54' E 001°40'10 9.6
2015-Aug-24 20:33N 53°01' E 001°29'10 9.8
2015-Aug-24 19:34N 53°08' E 001°18'3410.0
2015-Aug-24 16:11N 53°29' E 000°34'610.3
2015-Aug-24 15:34N 53°32' E 000°24'1010.1
2015-Aug-24 14:33N 53°33' E 000°07'1211.8
2015-Aug-24 13:34N 53°39' W 000°10'6 5.5
2015-Aug-24 12:33N 53°44' W 000°15'0 0.0
2015-Aug-24 11:33N 53°44' W 000°15'0 0.0
2015-Aug-24 10:30N 53°44' W 000°15'0 0.0
2015-Aug-24 09:33N 53°44' W 000°15'0 0.0
2015-Aug-24 08:33N 53°44' W 000°15'0 0.0
2015-Aug-24 07:33N 53°44' W 000°15'0 0.0
2015-Aug-24 06:33N 53°44' W 000°15'0 0.0
2015-Aug-24 05:33N 53°44' W 000°15'0 0.0
2015-Aug-24 04:33N 53°44' W 000°15'0 0.0
2015-Aug-24 03:33N 53°44' W 000°15'0 0.0
2015-Aug-24 02:33N 53°44' W 000°15'0 0.0
2015-Aug-24 01:33N 53°44' W 000°15'0 0.0
2015-Aug-24 00:33N 53°44' W 000°15'0 0.0
2015-Aug-23 23:33N 53°44' W 000°15'0 0.0
2015-Aug-23 22:33N 53°44' W 000°15'0 0.0
2015-Aug-23 21:33N 53°44' W 000°15'0 0.0
2015-Aug-23 20:33N 53°44' W 000°15'0 0.0
2015-Aug-23 19:34N 53°44' W 000°15'0 0.0
2015-Aug-23 18:33N 53°44' W 000°15'0 0.0
2015-Aug-23 17:34N 53°44' W 000°15'0 0.0
2015-Aug-23 16:33N 53°44' W 000°15'0 0.0
2015-Aug-23 15:33N 53°44' W 000°15'0 0.0
2015-Aug-23 14:33N 53°44' W 000°15'1 1.4
2015-Aug-23 13:33N 53°42' W 000°14'9 9.2
2015-Aug-23 12:33N 53°36' W 000°02'1110.4
2015-Aug-23 11:33N 53°33' E 000°15'4 0.5
2015-Aug-23 03:32N 53°36' E 000°19'9 9.4
2015-Aug-23 02:34N 53°35' E 000°04'9 9.3
2015-Aug-23 01:33N 53°38' W 000°11'0 0.0
2015-Aug-23 00:33N 53°38' W 000°11'0 0.0
2015-Aug-22 23:30N 53°38' W 000°11'0 0.0
2015-Aug-22 22:33N 53°38' W 000°11'0 0.0
2015-Aug-22 21:33N 53°38' W 000°11'0 0.0
2015-Aug-22 20:33N 53°38' W 000°11'0 0.0
2015-Aug-22 19:33N 53°38' W 000°11'0 0.0
2015-Aug-22 18:33N 53°38' W 000°11'0 0.0
2015-Aug-22 17:33N 53°38' W 000°11'0 0.0
2015-Aug-22 16:33N 53°38' W 000°11'0 0.0
2015-Aug-22 15:33N 53°38' W 000°11'0 0.0
2015-Aug-22 14:34N 53°38' W 000°11'4 3.5
2015-Aug-22 13:33N 53°37' W 000°05'9 8.9
2015-Aug-22 12:33N 53°33' E 000°09'9 8.7
2015-Aug-22 11:33N 53°33' E 000°23'1110.8
2015-Aug-22 10:33N 53°28' E 000°39'3310.8
2015-Aug-22 07:30N 53°06' E 001°21'1212.7
2015-Aug-22 06:33N 52°57' E 001°35'1313.1
2015-Aug-22 05:33N 52°49' E 001°51'1312.6
2015-Aug-22 04:33N 52°39' E 002°04'1211.8
2015-Aug-22 03:33N 52°29' E 002°14'6510.4
2015-Aug-21 21:18N 51°39' E 003°21'912.1
2015-Aug-21 20:33N 51°31' E 003°27'1212.6
2015-Aug-21 19:34N 51°23' E 003°43'9 9.3
2015-Aug-21 18:33N 51°25' E 003°58'7 7.3
2015-Aug-21 17:33N 51°23' E 004°09'7 6.5
2015-Aug-21 16:33N 51°18' E 004°17'6 5.6
2015-Aug-21 15:33N 51°14' E 004°23'0 0.0
2015-Aug-21 14:33N 51°14' E 004°23'0 0.1
2015-Aug-21 13:33N 51°14' E 004°23'0 0.0
2015-Aug-21 12:33N 51°14' E 004°23'0 0.1
2015-Aug-21 11:33N 51°14' E 004°23'3 2.7
2015-Aug-21 10:34N 51°12' E 004°21'5 5.1
2015-Aug-21 09:32N 51°07' E 004°18'2 1.2
2015-Aug-21 07:33N 51°05' E 004°21'0 0.0
2015-Aug-21 06:24N 51°05' E 004°21'0 0.0
2015-Aug-21 05:18N 51°05' E 004°21'0 0.0
2015-Aug-21 04:15N 51°05' E 004°21'0 0.0
2015-Aug-21 03:09N 51°05' E 004°21'0 0.0
2015-Aug-21 02:33N 51°05' E 004°21'0 0.0
2015-Aug-21 01:03N 51°05' E 004°21'  
Track history (hours):
 
Tides and Currents Weather Stations Pressure Air Temp Water Temp Dewpoint Dewpoint Depression Visibility Wind Speed Wind Dir Waves Ship Positions

Stolt Shearwater

Last reported at 2015-Aug-31 00:33 UTC. Time now 2015-Aug-31 08:54 UTC.
Position N 53°19' W 002°57'.

Length 96 m; draft 5.5 m.

Type: Ship. MMSI: 319402000.

Date/timePositionNaut miles runAvg speedWind from/ knotsBaromVisibWave heightAir tempDewpointWater temp
2015-Aug-31 00:33N 53°19' W 002°57'2 2.1
2015-Aug-30 23:33N 53°21' W 002°58'10 9.6
2015-Aug-30 22:33N 53°30' W 003°06'8 8.3
2015-Aug-30 21:33N 53°31' W 003°20'3 3.4
2015-Aug-30 20:32N 53°29' W 003°24'0 0.0
2015-Aug-30 19:32N 53°29' W 003°24'0 0.0
2015-Aug-30 18:32N 53°29' W 003°24'0 0.1
2015-Aug-30 17:32N 53°28' W 003°24'0 0.1
2015-Aug-30 16:32N 53°29' W 003°24'0 0.0
2015-Aug-30 15:29N 53°29' W 003°24'0 0.0
2015-Aug-30 14:31N 53°29' W 003°24'0 0.0
2015-Aug-30 13:32N 53°29' W 003°24'0 0.0
2015-Aug-30 12:29N 53°29' W 003°24'0 0.1
2015-Aug-30 11:31N 53°28' W 003°24'0 0.1
2015-Aug-30 10:29N 53°28' W 003°24'0 0.0
2015-Aug-30 09:32N 53°28' W 003°24'0 0.0
2015-Aug-30 08:32N 53°28' W 003°24'0 0.0
2015-Aug-30 07:32N 53°28' W 003°24'0 0.0
2015-Aug-30 06:32N 53°29' W 003°24'0 0.0
2015-Aug-30 05:32N 53°29' W 003°24'0 0.1
2015-Aug-30 04:32N 53°29' W 003°24'0 0.0
2015-Aug-30 03:32N 53°29' W 003°24'0 0.0
2015-Aug-30 02:32N 53°29' W 003°24'0 0.0
2015-Aug-30 01:32N 53°29' W 003°24'0 0.0
2015-Aug-30 00:32N 53°29' W 003°24'0 0.0
2015-Aug-29 23:32N 53°29' W 003°24'0 0.1
2015-Aug-29 22:32N 53°29' W 003°24'0 0.0
2015-Aug-29 21:32N 53°29' W 003°24'0 0.0
2015-Aug-29 20:32N 53°29' W 003°24'0 0.0
2015-Aug-29 19:29N 53°29' W 003°24'0 0.0
2015-Aug-29 18:26N 53°29' W 003°24'0 0.1
2015-Aug-29 17:33N 53°29' W 003°24'0 0.0
2015-Aug-29 16:33N 53°29' W 003°24'0 0.1
2015-Aug-29 15:34N 53°29' W 003°24'5 5.4
2015-Aug-29 14:33N 53°31' W 003°33'9 8.5
2015-Aug-29 13:33N 53°32' W 003°47'3 3.2
2015-Aug-29 12:33N 53°34' W 003°51'9 9.4
2015-Aug-29 11:34N 53°34' W 003°35'1111.3
2015-Aug-29 10:33N 53°32' W 003°17'9 9.1
2015-Aug-29 09:33N 53°28' W 003°03'7 7.1
2015-Aug-29 08:33N 53°21' W 002°58'4 3.8
2015-Aug-29 07:33N 53°18' W 002°55'3 2.5
2015-Aug-29 06:32N 53°17' W 002°51'0 0.0
2015-Aug-29 05:32N 53°17' W 002°51'0 0.0
2015-Aug-29 04:32N 53°17' W 002°51'0 0.0
2015-Aug-29 03:32N 53°17' W 002°51'0 0.0
2015-Aug-29 02:29N 53°17' W 002°51'0 0.0
2015-Aug-29 01:32N 53°17' W 002°51'0 0.0
2015-Aug-29 00:32N 53°17' W 002°51'0 0.0
2015-Aug-28 23:32N 53°17' W 002°51'0 0.0
2015-Aug-28 22:32N 53°17' W 002°51'0 0.0
2015-Aug-28 21:32N 53°17' W 002°51'0 0.0
2015-Aug-28 20:29N 53°17' W 002°51'0 0.0
2015-Aug-28 19:32N 53°17' W 002°51'0 0.0
2015-Aug-28 18:32N 53°17' W 002°51'0 0.0
2015-Aug-28 17:32N 53°17' W 002°51'0 0.0
2015-Aug-28 16:32N 53°17' W 002°51'0 0.0
2015-Aug-28 15:32N 53°17' W 002°51'0 0.0
2015-Aug-28 14:32N 53°17' W 002°51'0 0.0
2015-Aug-28 13:29N 53°17' W 002°51'0 0.0
2015-Aug-28 12:29N 53°17' W 002°51'0 0.0
2015-Aug-28 11:32N 53°17' W 002°51'2 2.0
2015-Aug-28 10:33N 53°18' W 002°54'4 3.6
2015-Aug-28 09:33N 53°20' W 002°58'10 9.8
2015-Aug-28 08:33N 53°29' W 003°05'9 9.0
2015-Aug-28 07:33N 53°31' W 003°20'3 3.2
2015-Aug-28 06:33N 53°28' W 003°24'0 0.0
2015-Aug-28 05:33N 53°28' W 003°24'0 0.0
2015-Aug-28 04:33N 53°28' W 003°24'0 0.0
2015-Aug-28 03:33N 53°28' W 003°24'0 0.1
2015-Aug-28 02:32N 53°28' W 003°24'0 0.1
2015-Aug-28 01:30N 53°28' W 003°24'0 0.0
2015-Aug-28 00:32N 53°28' W 003°24'0 0.1
2015-Aug-27 23:33N 53°28' W 003°24'0 0.1
2015-Aug-27 22:30N 53°28' W 003°24'0 0.1
2015-Aug-27 21:30N 53°28' W 003°24'0 0.0
2015-Aug-27 20:32N 53°28' W 003°24'0 0.0
2015-Aug-27 19:27N 53°28' W 003°24'4 4.1
2015-Aug-27 18:33N 53°30' W 003°29'1312.6
2015-Aug-27 17:33N 53°31' W 003°50'207 5.9
2015-Aug-26 06:33N 50°05' W 003°17'8 8.0
2015-Aug-26 05:31N 50°07' W 003°05'7 7.7
2015-Aug-26 04:33N 50°08' W 002°53'115 9.5
2015-Aug-25 16:26N 50°33' E 000°02'9 7.6
2015-Aug-25 15:15N 50°35' E 000°16'6 7.8
2015-Aug-25 14:33N 50°36' E 000°25'9 9.1
2015-Aug-25 13:34N 50°39' E 000°38'1010.2
2015-Aug-25 12:33N 50°46' E 000°51'1110.5
2015-Aug-25 11:30N 50°52' E 001°05'1010.2
2015-Aug-25 10:34N 50°58' E 001°16'9 9.4
2015-Aug-25 09:34N 51°04' E 001°28'9 8.9
2015-Aug-25 08:34N 51°10' E 001°39'9 8.9
2015-Aug-25 07:33N 51°17' E 001°48'10 9.6
2015-Aug-25 06:34N 51°25' E 001°55'1010.3
2015-Aug-25 05:33N 51°34' E 002°04'1110.9
2015-Aug-25 04:33N 51°44' E 002°12'2211.2
2015-Aug-25 02:34N 52°06' E 002°12'1211.8
2015-Aug-25 01:32N 52°18' E 002°08'1111.4
2015-Aug-25 00:33N 52°29' E 002°05'1110.9
2015-Aug-24 23:33N 52°40' E 002°01'10 9.7
2015-Aug-24 22:34N 52°48' E 001°53'10 9.9
2015-Aug-24 21:33N 52°54' E 001°40'10 9.6
2015-Aug-24 20:33N 53°01' E 001°29'10 9.8
2015-Aug-24 19:34N 53°08' E 001°18'3410.0
2015-Aug-24 16:11N 53°29' E 000°34'610.3
2015-Aug-24 15:34N 53°32' E 000°24'1010.1
2015-Aug-24 14:33N 53°33' E 000°07'1211.8
2015-Aug-24 13:34N 53°39' W 000°10'6 5.5
2015-Aug-24 12:33N 53°44' W 000°15'0 0.0
2015-Aug-24 11:33N 53°44' W 000°15'0 0.0
2015-Aug-24 10:30N 53°44' W 000°15'0 0.0
2015-Aug-24 09:33N 53°44' W 000°15'0 0.0
2015-Aug-24 08:33N 53°44' W 000°15'0 0.0
2015-Aug-24 07:33N 53°44' W 000°15'0 0.0
2015-Aug-24 06:33N 53°44' W 000°15'0 0.0
2015-Aug-24 05:33N 53°44' W 000°15'0 0.0
2015-Aug-24 04:33N 53°44' W 000°15'0 0.0
2015-Aug-24 03:33N 53°44' W 000°15'0 0.0
2015-Aug-24 02:33N 53°44' W 000°15'0 0.0
2015-Aug-24 01:33N 53°44' W 000°15'0 0.0
2015-Aug-24 00:33N 53°44' W 000°15'0 0.0
2015-Aug-23 23:33N 53°44' W 000°15'0 0.0
2015-Aug-23 22:33N 53°44' W 000°15'0 0.0
2015-Aug-23 21:33N 53°44' W 000°15'0 0.0
2015-Aug-23 20:33N 53°44' W 000°15'0 0.0
2015-Aug-23 19:34N 53°44' W 000°15'0 0.0
2015-Aug-23 18:33N 53°44' W 000°15'0 0.0
2015-Aug-23 17:34N 53°44' W 000°15'0 0.0
2015-Aug-23 16:33N 53°44' W 000°15'0 0.0
2015-Aug-23 15:33N 53°44' W 000°15'0 0.0
2015-Aug-23 14:33N 53°44' W 000°15'1 1.4
2015-Aug-23 13:33N 53°42' W 000°14'9 9.2
2015-Aug-23 12:33N 53°36' W 000°02'1110.4
2015-Aug-23 11:33N 53°33' E 000°15'4 0.5
2015-Aug-23 03:32N 53°36' E 000°19'9 9.4
2015-Aug-23 02:34N 53°35' E 000°04'9 9.3
2015-Aug-23 01:33N 53°38' W 000°11'0 0.0
2015-Aug-23 00:33N 53°38' W 000°11'0 0.0
2015-Aug-22 23:30N 53°38' W 000°11'0 0.0
2015-Aug-22 22:33N 53°38' W 000°11'0 0.0
2015-Aug-22 21:33N 53°38' W 000°11'0 0.0
2015-Aug-22 20:33N 53°38' W 000°11'0 0.0
2015-Aug-22 19:33N 53°38' W 000°11'0 0.0
2015-Aug-22 18:33N 53°38' W 000°11'0 0.0
2015-Aug-22 17:33N 53°38' W 000°11'0 0.0
2015-Aug-22 16:33N 53°38' W 000°11'0 0.0
2015-Aug-22 15:33N 53°38' W 000°11'0 0.0
2015-Aug-22 14:34N 53°38' W 000°11'4 3.5
2015-Aug-22 13:33N 53°37' W 000°05'9 8.9
2015-Aug-22 12:33N 53°33' E 000°09'9 8.7
2015-Aug-22 11:33N 53°33' E 000°23'1110.8
2015-Aug-22 10:33N 53°28' E 000°39'3310.8
2015-Aug-22 07:30N 53°06' E 001°21'1212.7
2015-Aug-22 06:33N 52°57' E 001°35'1313.1
2015-Aug-22 05:33N 52°49' E 001°51'1312.6
2015-Aug-22 04:33N 52°39' E 002°04'1211.8
2015-Aug-22 03:33N 52°29' E 002°14'6510.4
2015-Aug-21 21:18N 51°39' E 003°21'912.1
2015-Aug-21 20:33N 51°31' E 003°27'1212.6
2015-Aug-21 19:34N 51°23' E 003°43'9 9.3
2015-Aug-21 18:33N 51°25' E 003°58'7 7.3
2015-Aug-21 17:33N 51°23' E 004°09'7 6.5
2015-Aug-21 16:33N 51°18' E 004°17'6 5.6
2015-Aug-21 15:33N 51°14' E 004°23'0 0.0
2015-Aug-21 14:33N 51°14' E 004°23'0 0.1
2015-Aug-21 13:33N 51°14' E 004°23'0 0.0
2015-Aug-21 12:33N 51°14' E 004°23'0 0.1
2015-Aug-21 11:33N 51°14' E 004°23'3 2.7
2015-Aug-21 10:34N 51°12' E 004°21'5 5.1
2015-Aug-21 09:32N 51°07' E 004°18'2 1.2
2015-Aug-21 07:33N 51°05' E 004°21'0 0.0
2015-Aug-21 06:24N 51°05' E 004°21'0 0.0
2015-Aug-21 05:18N 51°05' E 004°21'0 0.0
2015-Aug-21 04:15N 51°05' E 004°21'0 0.0
2015-Aug-21 03:09N 51°05' E 004°21'0 0.0
2015-Aug-21 02:33N 51°05' E 004°21'0 0.0
2015-Aug-21 01:03N 51°05' E 004°21'  

Dump ship's entire track history